»·PEaware :: N124HF KPAE-KOLM

N124HF :: KPAE-KOLM

FLIGHT INFORMATION

Flight Status: Arrived
Operator: Privately registered:
United States
More flights under this callsign
Pilot: Jerrivel R. (26020)
Aircraft: CESSNA 172 SKYHAWK
(C172)
More flights by this aircraft type
Origin: KPAE Paine Field/Snohomish Co.
United States
Destination: KOLM Olympia
United States
More flights between these airports :: More routes between these airports
Route: +PWT OLM
File this flight plan on PilotEdge
Remarks:
Altitude:
(Current/Filed)
4,500ft
Speed:
(Current/Filed)
108kts
Departed: 06-Sep-20 12:00 PM
Arrived: 06-Sep-20 12:42 PM
Distance/Time
Traveled:
61nm/0:42
Distance/Time
To Go:
Arrived

Flight Plot

Page will automatically refresh every two minutes.

Flight plan parsing failed; only flown route is shown


Map Options




Map Legend


Flown Route
Filed Route
Departure Airport
Arrival Airport
Navaid (VOR, NDB)
Fix

Horizontal Profiles

Position Reports

Time Latitude Longitude Heading Altitude Ground
Speed
06-Sep-20 11:41 47.898808 -122.280730 0 611ft 0kts
06-Sep-20 11:42 47.898811 -122.280730 0 611ft 0kts
06-Sep-20 11:44 47.898814 -122.280730 0 611ft 0kts
06-Sep-20 11:45 47.898816 -122.280730 0 611ft 0kts
06-Sep-20 11:46 47.898819 -122.280730 0 611ft 0kts
06-Sep-20 11:47 47.898822 -122.280730 0 611ft 0kts
06-Sep-20 11:48 47.898824 -122.280730 0 611ft 0kts
06-Sep-20 11:49 47.898827 -122.280730 0 611ft 0kts
06-Sep-20 11:50 47.898616 -122.280736 176 611ft 2kts
06-Sep-20 11:51 47.898283 -122.280735 181 611ft 0kts
06-Sep-20 11:52 47.898003 -122.281775 261 611ft 10kts
06-Sep-20 11:53 47.896738 -122.283780 238 611ft 5kts
06-Sep-20 11:54 47.896728 -122.283872 293 611ft 0kts
06-Sep-20 11:55 47.896730 -122.283879 293 611ft 0kts
06-Sep-20 11:56 47.896731 -122.283884 293 611ft 0kts
06-Sep-20 11:57 47.896779 -122.284321 271 611ft 6kts
06-Sep-20 11:58 47.896771 -122.284393 246 611ft 0kts
06-Sep-20 11:59 47.897301 -122.285325 359 611ft 22kts
06-Sep-20 12:00 47.916758 -122.284891 2 1245ft 80kts
06-Sep-20 12:01 47.937779 -122.288417 300 2181ft 80kts
06-Sep-20 12:01 47.927325 -122.312004 223 2851ft 93kts
06-Sep-20 12:03 47.900992 -122.336157 210 3808ft 95kts
06-Sep-20 12:04 47.888397 -122.366111 265 4484ft 92kts
06-Sep-20 12:04 47.878177 -122.397975 249 4536ft 109kts
06-Sep-20 12:05 47.864916 -122.439645 246 4486ft 110kts
06-Sep-20 12:06 47.849286 -122.479889 241 4424ft 111kts
06-Sep-20 12:07 47.833541 -122.519688 233 4393ft 111kts
06-Sep-20 12:08 47.805251 -122.539474 205 4421ft 113kts
06-Sep-20 12:09 47.776363 -122.558476 208 4455ft 115kts
06-Sep-20 12:10 47.747558 -122.579034 206 4468ft 113kts
06-Sep-20 12:11 47.718715 -122.598713 206 4461ft 116kts
06-Sep-20 12:12 47.689854 -122.618214 206 4504ft 113kts
06-Sep-20 12:13 47.660451 -122.637538 210 4621ft 116kts
06-Sep-20 12:14 47.630028 -122.658070 206 4530ft 125kts
06-Sep-20 12:15 47.598962 -122.677727 210 4541ft 115kts
06-Sep-20 12:16 47.570063 -122.701359 210 4506ft 123kts
06-Sep-20 12:17 47.539688 -122.725758 213 4527ft 122kts
06-Sep-20 12:18 47.510986 -122.749856 213 4471ft 112kts
06-Sep-20 12:19 47.482024 -122.770455 198 4511ft 125kts
06-Sep-20 12:20 47.448861 -122.784191 200 4472ft 120kts
06-Sep-20 12:21 47.416623 -122.799521 200 4444ft 119kts
06-Sep-20 12:22 47.386261 -122.815753 204 4523ft 118kts
06-Sep-20 12:23 47.354930 -122.833971 208 4600ft 124kts
06-Sep-20 12:24 47.323010 -122.853770 209 4524ft 117kts
06-Sep-20 12:25 47.294158 -122.873349 202 4569ft 112kts
06-Sep-20 12:26 47.264991 -122.890211 208 4573ft 112kts
06-Sep-20 12:27 47.237647 -122.911498 211 4639ft 114kts
06-Sep-20 12:28 47.208186 -122.933361 208 4502ft 120kts
06-Sep-20 12:29 47.179776 -122.958201 218 4461ft 115kts
06-Sep-20 12:30 47.153182 -122.982688 209 4422ft 108kts
06-Sep-20 12:31 47.123380 -122.980779 173 3963ft 112kts
06-Sep-20 12:32 47.092131 -122.974781 172 3492ft 111kts
06-Sep-20 12:33 47.061480 -122.966662 158 3069ft 109kts
06-Sep-20 12:34 47.035361 -122.947062 165 2539ft 106kts
06-Sep-20 12:35 47.008380 -122.936377 171 1828ft 95kts
06-Sep-20 12:36 47.011008 -122.947696 66 1401ft 82kts
06-Sep-20 12:37 46.990734 -122.925789 148 1145ft 101kts
06-Sep-20 12:38 46.963098 -122.922924 188 1182ft 103kts
06-Sep-20 12:39 46.942430 -122.918814 82 861ft 71kts
06-Sep-20 12:40 46.956542 -122.908239 14 343ft 60kts
06-Sep-20 12:41 46.967251 -122.904527 96 211ft 8kts
06-Sep-20 12:42 46.967247 -122.903896 89 211ft 5kts
06-Sep-20 12:43 46.967387 -122.901065 21 211ft 9kts
06-Sep-20 12:44 46.970180 -122.900060 50 211ft 10kts
06-Sep-20 12:45 46.972195 -122.896859 46 211ft 9kts
06-Sep-20 12:46 46.974522 -122.898517 321 211ft 13kts
06-Sep-20 12:47 46.975526 -122.898757 52 211ft 0kts
06-Sep-20 12:48 46.975530 -122.898751 52 211ft 0kts
06-Sep-20 12:49 46.975530 -122.898751 52 211ft 0kts
06-Sep-20 12:50 46.975530 -122.898751 52 211ft 0kts
06-Sep-20 12:51 46.975530 -122.898751 52 211ft 0kts
06-Sep-20 12:52 46.975530 -122.898751 52 211ft 0kts
06-Sep-20 12:53 46.975530 -122.898751 52 211ft 0kts
06-Sep-20 12:54 46.975530 -122.898751 52 211ft 0kts
06-Sep-20 12:55 46.975530 -122.898751 52 211ft 0kts
06-Sep-20 12:56 46.975530 -122.898751 52 211ft 0kts

Navigation Log

Ident Type
Flight plan parsing failed, navigation log unavailable